Time;durP1;ratioP1;P1;durP2;ratioP2;P2;SDS_P1;SDS_P2;PMS_P1;PMS_P2;Temp;Humidity;BMP_temperature;BMP_pressure;BME280_temperature;BME280_humidity;BME280_pressure;Samples;Min_cycle;Max_cycle;Signal;HPM_P1;HPM_P2
2022/03/11 00:02:23;;;;;;;12.68;8.38;;;7.60;99.90;;;;;;4952284;29;20031;-64
2022/03/11 00:04:49;;;;;;;17.08;9.88;;;7.50;99.90;;;;;;4935185;28;20067;-64
2022/03/11 00:07:15;;;;;;;15.95;9.65;;;7.60;99.90;;;;;;4952442;29;20046;-64
2022/03/11 00:09:41;;;;;;;17.15;10.27;;;;;;;;;;4952414;29;20039;-64
2022/03/11 00:12:08;;;;;;;14.68;9.13;;;7.30;99.90;;;;;;4935019;29;20039;-64
2022/03/11 00:14:34;;;;;;;14.40;9.73;;;7.40;99.90;;;;;;4952210;29;20456;-64
2022/03/11 00:17:00;;;;;;;17.48;9.25;;;7.40;99.90;;;;;;4952053;29;20063;-63
2022/03/11 00:19:26;;;;;;;13.70;9.50;;;7.20;99.90;;;;;;4951955;29;20482;-64
2022/03/11 00:21:51;;;;;;;14.27;9.35;;;7.30;99.90;;;;;;4952151;29;20043;-64
2022/03/11 00:24:17;;;;;;;18.35;9.38;;;7.30;99.90;;;;;;4952112;29;20051;-64
2022/03/11 00:26:43;;;;;;;14.60;9.75;;;7.20;99.90;;;;;;4952355;29;20067;-64
2022/03/11 00:29:09;;;;;;;14.32;9.63;;;7.30;99.90;;;;;;4951792;29;20039;-64
2022/03/11 00:31:34;;;;;;;14.07;9.00;;;7.20;99.90;;;;;;4951800;29;20130;-63
2022/03/11 00:34:00;;;;;;;13.63;9.00;;;6.90;99.90;;;;;;4951963;29;20040;-63
2022/03/11 00:36:26;;;;;;;17.65;10.40;;;7.10;99.90;;;;;;4935068;29;20053;-63
2022/03/11 00:38:52;;;;;;;14.88;9.68;;;7.00;99.90;;;;;;4952033;29;20047;-63
2022/03/11 00:41:18;;;;;;;14.98;8.65;;;6.80;99.90;;;;;;4952059;29;20464;-64
2022/03/11 00:43:43;;;;;;;16.95;10.68;;;7.00;99.90;;;;;;4951939;28;20537;-64
2022/03/11 00:46:09;;;;;;;15.55;9.35;;;7.10;99.90;;;;;;4951654;28;20039;-63
2022/03/11 00:48:35;;;;;;;15.63;9.85;;;6.90;99.90;;;;;;4951523;29;20047;-63
2022/03/11 00:51:00;;;;;;;12.95;9.18;;;6.80;99.90;;;;;;4951664;28;20053;-63
2022/03/11 00:53:27;;;;;;;13.80;7.53;;;6.60;99.90;;;;;;4952153;28;20493;-64
2022/03/11 00:55:54;;;;;;;16.02;10.23;;;6.90;99.90;;;;;;4938078;29;20039;-63
2022/03/11 00:58:19;;;;;;;18.65;9.63;;;6.60;99.90;;;;;;4954929;29;20065;-63
2022/03/11 01:00:45;;;;;;;13.90;9.15;;;6.70;99.90;;;;;;4954769;28;20568;-63
2022/03/11 01:03:11;;;;;;;15.82;10.50;;;;;;;;;;4954727;29;20075;-63
2022/03/11 01:05:36;;;;;;;18.67;9.98;;;6.80;99.90;;;;;;4954966;29;20050;-63
2022/03/11 01:08:02;;;;;;;16.08;9.82;;;6.80;99.90;;;;;;4955011;29;20043;-64
2022/03/11 01:10:28;;;;;;;17.38;9.90;;;6.70;99.90;;;;;;4954946;28;20055;-63
2022/03/11 01:12:54;;;;;;;15.23;8.80;;;6.60;99.90;;;;;;4954722;29;20047;-63
2022/03/11 01:15:19;;;;;;;14.98;8.35;;;6.70;99.90;;;;;;4954740;28;20073;-63
2022/03/11 01:17:45;;;;;;;15.70;9.70;;;6.80;99.90;;;;;;4954506;29;20035;-63
2022/03/11 01:20:11;;;;;;;13.57;9.30;;;6.60;99.90;;;;;;4954779;28;20118;-63
2022/03/11 01:22:37;;;;;;;14.18;9.00;;;6.70;99.90;;;;;;4954758;29;20036;-63
2022/03/11 01:25:04;;;;;;;14.75;9.25;;;;;;;;;;4937634;29;20066;-63
2022/03/11 01:27:29;;;;;;;14.38;9.35;;;6.50;99.90;;;;;;4954467;29;20114;-63
2022/03/11 01:29:55;;;;;;;12.48;9.10;;;6.20;99.90;;;;;;4954284;28;20458;-63
2022/03/11 01:32:20;;;;;;;14.02;9.40;;;6.50;99.90;;;;;;4954154;29;20055;-63
2022/03/11 01:34:46;;;;;;;15.73;9.15;;;6.40;99.90;;;;;;4954297;29;20043;-63
2022/03/11 01:37:12;;;;;;;14.55;9.32;;;6.50;99.90;;;;;;4954587;29;20035;-63
2022/03/11 01:39:37;;;;;;;12.10;7.95;;;6.60;99.90;;;;;;4954262;29;20069;-63
2022/03/11 01:42:03;;;;;;;14.10;9.25;;;6.40;99.90;;;;;;4954023;28;20043;-63
2022/03/11 01:44:29;;;;;;;15.32;9.30;;;6.40;99.90;;;;;;4953958;28;20062;-64
2022/03/11 01:46:55;;;;;;;15.85;8.95;;;6.30;99.90;;;;;;4954088;29;20047;-63
2022/03/11 01:49:22;;;;;;;12.02;7.93;;;;;;;;;;4937104;29;20047;-63
2022/03/11 01:51:48;;;;;;;15.63;8.90;;;6.10;99.90;;;;;;4936853;28;20100;-63
2022/03/11 01:54:14;;;;;;;14.75;8.38;;;6.20;99.90;;;;;;4954083;29;20078;-63
2022/03/11 01:56:40;;;;;;;13.70;8.57;;;6.00;99.90;;;;;;4954198;29;20063;-63
2022/03/11 01:59:07;;;;;;;17.08;7.95;;;6.30;99.90;;;;;;4954160;29;20043;-63
2022/03/11 02:01:32;;;;;;;15.20;8.75;;;6.20;99.90;;;;;;4937162;29;20051;-63
2022/03/11 02:03:58;;;;;;;12.48;7.90;;;6.20;99.90;;;;;;4936457;29;20050;-63
2022/03/11 02:06:26;;;;;;;18.35;8.68;;;6.10;99.90;;;;;;4953896;29;20042;-63
2022/03/11 02:08:52;;;;;;;15.70;8.52;;;6.10;99.90;;;;;;4936718;29;20120;-63
2022/03/11 02:11:19;;;;;;;11.70;7.03;;;6.10;99.90;;;;;;4953866;28;20043;-63
2022/03/11 02:13:47;;;;;;;12.73;8.05;;;6.10;99.90;;;;;;4953885;28;20135;-63
2022/03/11 02:16:15;;;;;;;14.93;7.50;;;6.10;99.90;;;;;;4936878;29;20046;-63
2022/03/11 02:18:41;;;;;;;17.02;8.32;;;6.00;99.90;;;;;;4953879;29;20445;-63
2022/03/11 02:21:09;;;;;;;12.55;8.80;;;6.10;99.90;;;;;;4953789;28;20082;-63
2022/03/11 02:23:42;;;;;;;13.60;8.98;;;5.90;99.90;;;;;;4936560;29;20105;-62
2022/03/11 02:26:08;;;;;;;15.20;7.95;;;;;;;;;;4953787;29;20039;-63
2022/03/11 02:28:34;;;;;;;18.05;8.13;;;5.80;99.90;;;;;;4953544;29;20516;-63
2022/03/11 02:30:59;;;;;;;14.45;8.18;;;5.70;99.90;;;;;;4953055;28;20039;-64
2022/03/11 02:33:25;;;;;;;14.40;8.00;;;5.80;99.90;;;;;;4953466;29;20055;-63
2022/03/11 02:35:50;;;;;;;14.73;8.90;;;5.90;99.90;;;;;;4953565;29;20069;-63
2022/03/11 02:38:16;;;;;;;12.13;6.78;;;5.80;99.90;;;;;;4953600;29;20043;-63
2022/03/11 02:40:42;;;;;;;14.82;9.32;;;5.90;99.90;;;;;;4953432;28;20093;-63
2022/03/11 02:43:07;;;;;;;15.43;9.18;;;5.70;99.90;;;;;;4953457;29;20051;-63
2022/03/11 02:45:33;;;;;;;12.85;8.27;;;5.60;99.90;;;;;;4953238;28;20130;-63
2022/03/11 02:47:58;;;;;;;12.70;8.50;;;5.70;99.90;;;;;;4953397;29;20090;-63
2022/03/11 02:50:24;;;;;;;13.13;8.27;;;5.70;99.90;;;;;;4953330;28;20528;-63
2022/03/11 02:52:49;;;;;;;17.67;9.13;;;5.40;99.90;;;;;;4935968;29;20509;-63
2022/03/11 02:55:15;;;;;;;16.45;8.57;;;5.80;99.90;;;;;;4953396;29;20050;-63
2022/03/11 02:57:40;;;;;;;15.90;8.13;;;5.70;99.90;;;;;;4953278;29;20039;-63
2022/03/11 03:00:07;;;;;;;15.38;9.13;;;5.50;99.90;;;;;;4953094;28;20071;-63
2022/03/11 03:02:32;;;;;;;17.08;8.88;;;5.60;99.90;;;;;;4936354;28;20047;-63
2022/03/11 03:04:58;;;;;;;17.05;9.35;;;5.50;99.90;;;;;;4935984;29;20040;-63
2022/03/11 03:07:23;;;;;;;12.52;8.07;;;5.50;99.90;;;;;;4953339;29;20043;-63
2022/03/11 03:09:49;;;;;;;15.63;8.85;;;;;;;;;;4953125;28;20482;-63
2022/03/11 03:12:15;;;;;;;15.60;9.30;;;5.50;99.90;;;;;;4952971;29;20079;-63
2022/03/11 03:14:41;;;;;;;16.02;8.95;;;5.70;99.90;;;;;;4953004;29;20047;-63
2022/03/11 03:17:07;;;;;;;14.73;8.40;;;5.60;99.90;;;;;;4952269;28;20039;-63
2022/03/11 03:19:35;;;;;;;17.42;9.55;;;5.70;99.90;;;;;;4953026;29;20467;-63
2022/03/11 03:22:01;;;;;;;15.10;9.38;;;5.50;99.90;;;;;;4953038;28;20458;-63
2022/03/11 03:24:27;;;;;;;14.60;8.93;;;5.60;99.90;;;;;;4953050;29;20051;-63
2022/03/11 03:26:55;;;;;;;12.27;7.85;;;5.60;99.90;;;;;;4953042;28;20051;-63
2022/03/11 03:29:20;;;;;;;14.52;8.85;;;5.50;99.90;;;;;;4936073;29;20107;-63
2022/03/11 03:31:45;;;;;;;17.15;9.75;;;5.70;99.90;;;;;;4952434;28;20508;-63
2022/03/11 03:34:11;;;;;;;18.23;9.15;;;5.70;99.90;;;;;;4952865;29;20047;-63
2022/03/11 03:36:37;;;;;;;14.65;7.78;;;5.40;99.90;;;;;;4952854;29;20043;-63
2022/03/11 03:39:02;;;;;;;18.55;9.18;;;5.50;99.90;;;;;;4952608;28;20100;-63
2022/03/11 03:41:28;;;;;;;20.38;10.02;;;5.30;99.90;;;;;;4952570;28;20047;-63
2022/03/11 03:43:53;;;;;;;14.80;9.02;;;5.40;99.90;;;;;;4952676;28;20043;-62
2022/03/11 03:46:19;;;;;;;18.80;9.73;;;5.30;99.90;;;;;;4935563;29;20054;-63
2022/03/11 03:48:44;;;;;;;13.93;8.90;;;5.20;99.90;;;;;;4952820;29;20069;-63
2022/03/11 03:51:10;;;;;;;16.77;9.57;;;5.40;99.90;;;;;;4952551;28;20043;-63
2022/03/11 03:53:35;;;;;;;17.45;9.15;;;5.30;99.90;;;;;;4952629;29;20070;-63
2022/03/11 03:56:01;;;;;;;15.32;9.52;;;5.30;99.90;;;;;;4935568;29;20061;-63
2022/03/11 03:58:27;;;;;;;16.70;10.63;;;5.20;99.90;;;;;;4952333;29;20031;-63
2022/03/11 04:00:52;;;;;;;15.65;8.85;;;5.10;99.90;;;;;;4952463;28;20112;-63
2022/03/11 04:03:18;;;;;;;19.63;9.93;;;5.20;99.90;;;;;;4952545;29;20043;-63
2022/03/11 04:05:43;;;;;;;14.43;7.57;;;5.10;99.90;;;;;;4934958;29;20456;-62
2022/03/11 04:08:09;;;;;;;17.60;8.70;;;5.10;99.90;;;;;;4952499;29;20582;-63
2022/03/11 04:10:35;;;;;;;18.23;10.98;;;5.20;99.90;;;;;;4952137;28;20058;-62
2022/03/11 04:13:01;;;;;;;18.63;10.27;;;5.30;99.90;;;;;;4950908;29;20052;-63
2022/03/11 04:15:26;;;;;;;17.77;9.98;;;5.10;99.90;;;;;;4952158;28;20169;-63
2022/03/11 04:17:52;;;;;;;16.60;10.13;;;5.00;99.90;;;;;;4952367;29;20401;-63
2022/03/11 04:20:18;;;;;;;15.98;9.27;;;5.00;99.90;;;;;;4952067;28;20035;-63
2022/03/11 04:22:44;;;;;;;19.40;10.43;;;5.00;99.90;;;;;;4952205;29;20578;-63
2022/03/11 04:25:11;;;;;;;20.92;10.90;;;5.00;99.90;;;;;;4952146;29;20035;-62
2022/03/11 04:27:36;;;;;;;17.00;10.00;;;4.90;99.90;;;;;;4953111;28;20110;-63
2022/03/11 04:30:03;;;;;;;17.10;10.93;;;4.90;99.90;;;;;;4955456;28;20122;-63
2022/03/11 04:32:29;;;;;;;19.60;10.73;;;5.00;99.90;;;;;;4955266;28;20087;-63
2022/03/11 04:34:55;;;;;;;19.80;12.32;;;4.80;99.90;;;;;;4955448;29;20144;-62
2022/03/11 04:37:21;;;;;;;17.15;10.38;;;4.90;99.90;;;;;;4955442;28;20089;-63
2022/03/11 04:39:46;;;;;;;19.17;11.55;;;4.80;99.90;;;;;;4955422;28;20039;-62
2022/03/11 04:42:12;;;;;;;20.48;11.98;;;4.90;99.90;;;;;;4955391;28;20128;-63
2022/03/11 04:44:38;;;;;;;18.63;10.45;;;4.80;99.90;;;;;;4955231;28;20402;-63
2022/03/11 04:47:04;;;;;;;21.38;11.60;;;4.90;99.90;;;;;;4955518;28;20485;-63
2022/03/11 04:49:30;;;;;;;18.13;11.55;;;4.90;99.90;;;;;;4955262;29;20039;-63
2022/03/11 04:51:56;;;;;;;22.98;12.73;;;;;;;;;;4955130;28;20039;-63
2022/03/11 04:54:22;;;;;;;26.38;13.10;;;4.80;99.90;;;;;;4955250;29;20065;-62
2022/03/11 04:56:47;;;;;;;21.65;12.00;;;4.70;99.90;;;;;;4955089;28;20435;-63
2022/03/11 04:59:13;;;;;;;19.17;8.30;;;4.70;99.90;;;;;;4955083;28;20492;-63
2022/03/11 05:01:38;;;;;;;21.63;12.55;;;4.80;99.90;;;;;;4955093;28;20067;-63
2022/03/11 05:04:04;;;;;;;21.77;12.70;;;4.70;99.90;;;;;;4955018;28;20456;-62
2022/03/11 05:06:30;;;;;;;23.98;12.18;;;4.60;99.90;;;;;;4955014;29;20431;-62
2022/03/11 05:08:56;;;;;;;25.20;12.93;;;;;;;;;;4955175;28;20432;-63
2022/03/11 05:11:22;;;;;;;20.10;11.65;;;;;;;;;;4954708;28;20047;-63
2022/03/11 05:13:47;;;;;;;21.08;12.15;;;4.60;99.90;;;;;;4954447;28;20134;-62
2022/03/11 05:16:13;;;;;;;19.83;11.32;;;;;;;;;;4954268;29;20123;-62
2022/03/11 05:18:39;;;;;;;22.95;12.60;;;4.60;99.90;;;;;;4969354;28;20381;-62
2022/03/11 05:21:04;;;;;;;24.23;13.10;;;4.40;99.90;;;;;;4969489;28;20043;-62
2022/03/11 05:23:30;;;;;;;20.52;10.77;;;4.50;99.90;;;;;;4969525;28;20084;-62
2022/03/11 05:25:56;;;;;;;20.73;12.75;;;4.50;99.90;;;;;;4970131;28;20121;-63
2022/03/11 05:28:22;;;;;;;21.42;12.30;;;;;;;;;;4964646;28;20489;-63
2022/03/11 05:30:48;;;;;;;22.02;12.43;;;4.40;99.90;;;;;;4969524;28;20462;-63
2022/03/11 05:33:13;;;;;;;23.42;13.45;;;4.40;99.90;;;;;;4972121;28;20047;-62
2022/03/11 05:35:41;;;;;;;26.00;12.95;;;4.30;99.90;;;;;;4972798;28;20038;-62
2022/03/11 05:38:06;;;;;;;24.02;12.60;;;4.60;99.90;;;;;;4969858;28;20042;-63
2022/03/11 05:40:32;;;;;;;23.27;12.68;;;4.30;99.90;;;;;;4969052;28;20031;-62
2022/03/11 05:42:57;;;;;;;19.80;11.30;;;4.30;99.90;;;;;;4955096;28;20047;-62
2022/03/11 05:45:23;;;;;;;24.80;10.93;;;;;;;;;;4970518;28;20046;-62
2022/03/11 05:47:49;;;;;;;22.33;14.40;;;4.20;99.90;;;;;;4972304;28;20053;-62
2022/03/11 05:50:15;;;;;;;24.33;12.02;;;4.20;99.90;;;;;;4969680;28;20038;-62
2022/03/11 05:52:42;;;;;;;21.50;12.57;;;;;;;;;;4971437;28;20117;-62
2022/03/11 05:55:09;;;;;;;26.23;14.80;;;4.20;99.90;;;;;;4970793;28;20059;-62
2022/03/11 05:57:34;;;;;;;24.73;12.95;;;4.20;99.90;;;;;;4968844;28;20116;-62
2022/03/11 06:00:00;;;;;;;26.15;13.63;;;;;;;;;;4969328;28;20139;-62
2022/03/11 06:02:27;;;;;;;26.05;12.32;;;;;;;;;;4967234;28;20042;-62
2022/03/11 06:04:52;;;;;;;26.08;13.63;;;4.10;99.90;;;;;;4955064;28;20054;-62
2022/03/11 06:07:19;;;;;;;27.05;14.95;;;4.10;99.90;;;;;;4954836;28;20481;-63
2022/03/11 06:09:45;;;;;;;25.15;15.15;;;4.00;99.90;;;;;;4965898;28;20092;-63
2022/03/11 06:12:10;;;;;;;20.95;12.77;;;4.00;99.90;;;;;;4971475;28;20047;-63
2022/03/11 06:14:36;;;;;;;26.98;15.75;;;4.10;99.90;;;;;;4971134;28;20172;-62
2022/03/11 06:17:02;;;;;;;21.83;13.35;;;4.00;99.90;;;;;;4968308;28;20038;-62
2022/03/11 06:19:27;;;;;;;27.15;14.48;;;3.90;99.90;;;;;;4957797;28;20124;-63
2022/03/11 06:21:55;;;;;;;25.23;13.38;;;4.10;99.90;;;;;;4953876;28;20264;-63
2022/03/11 06:24:20;;;;;;;30.25;16.05;;;4.20;99.90;;;;;;4970017;28;20045;-62
2022/03/11 06:26:46;;;;;;;18.70;10.75;;;;;;;;;;4969839;28;20042;-62
2022/03/11 06:29:13;;;;;;;23.92;14.80;;;;;;;;;;4953693;28;20050;-63
2022/03/11 06:31:38;;;;;;;23.40;13.13;;;4.40;99.90;;;;;;4967023;28;20125;-63
2022/03/11 06:34:04;;;;;;;24.00;13.50;;;4.30;99.90;;;;;;4959644;28;20047;-63
2022/03/11 06:36:29;;;;;;;27.00;14.27;;;4.40;99.90;;;;;;4936694;28;20043;-63
2022/03/11 06:38:56;;;;;;;22.77;12.50;;;;;;;;;;4955853;28;20105;-62
2022/03/11 06:41:22;;;;;;;28.42;15.27;;;;;;;;;;4938566;28;20054;-63
2022/03/11 06:43:49;;;;;;;23.90;12.32;;;;;;;;;;4949997;28;20100;-64
2022/03/11 06:46:15;;;;;;;29.90;14.05;;;4.40;99.90;;;;;;4952405;28;20464;-60
2022/03/11 06:48:41;;;;;;;27.67;14.15;;;4.50;99.90;;;;;;4942207;28;20061;-63
2022/03/11 06:51:06;;;;;;;23.27;14.07;;;4.50;99.90;;;;;;4984886;28;20032;-63
2022/03/11 06:53:32;;;;;;;33.45;15.32;;;4.50;99.90;;;;;;5005398;28;20126;-62
2022/03/11 06:56:00;;;;;;;30.90;15.27;;;4.60;99.90;;;;;;4941731;29;20537;-61
2022/03/11 06:58:27;;;;;;;24.17;14.02;;;4.60;99.90;;;;;;4941985;29;20062;-61
2022/03/11 07:00:52;;;;;;;27.02;14.48;;;4.60;99.90;;;;;;4952696;28;20043;-62
2022/03/11 07:03:18;;;;;;;19.05;11.95;;;4.70;99.90;;;;;;4951957;29;20039;-62
2022/03/11 07:05:43;;;;;;;22.65;13.07;;;4.70;99.90;;;;;;4964032;28;20054;-62
2022/03/11 07:08:10;;;;;;;23.70;13.07;;;4.70;99.90;;;;;;4971259;28;20481;-63
2022/03/11 07:10:36;;;;;;;20.48;11.00;;;5.00;99.90;;;;;;4959541;28;20054;-65
2022/03/11 07:13:01;;;;;;;21.50;13.27;;;4.90;99.90;;;;;;4953140;28;20050;-66
2022/03/11 07:15:27;;;;;;;24.60;15.57;;;5.10;99.90;;;;;;4965473;28;20489;-66
2022/03/11 07:17:53;;;;;;;24.75;15.20;;;;;;;;;;4952787;28;20054;-67
2022/03/11 07:20:19;;;;;;;25.02;13.85;;;6.50;99.90;;;;;;4965119;28;20508;-67
2022/03/11 07:22:47;;;;;;;19.70;10.35;;;;;;;;;;4939079;29;20181;-65
2022/03/11 07:25:14;;;;;;;19.45;11.70;;;;;;;;;;4950084;28;20057;-64
2022/03/11 07:27:39;;;;;;;24.70;13.07;;;7.40;99.90;;;;;;4991600;28;20506;-65
2022/03/11 07:30:06;;;;;;;25.75;14.55;;;7.40;99.90;;;;;;4962871;28;20084;-64
2022/03/11 07:32:32;;;;;;;22.90;12.38;;;;;;;;;;4933486;28;20067;-65
2022/03/11 07:34:57;;;;;;;26.17;16.30;;;7.40;99.90;;;;;;4951029;29;20055;-65
2022/03/11 07:37:23;;;;;;;25.70;14.32;;;7.70;99.90;;;;;;4973723;28;20039;-64
2022/03/11 07:39:49;;;;;;;27.52;14.98;;;7.80;99.90;;;;;;4985265;28;20122;-64
2022/03/11 07:42:15;;;;;;;20.02;12.35;;;;;;;;;;4952380;28;20043;-64
2022/03/11 07:44:42;;;;;;;21.65;12.25;;;8.70;99.90;;;;;;4936184;28;20119;-63
2022/03/11 07:47:08;;;;;;;22.48;14.20;;;8.90;99.90;;;;;;4957789;28;20119;-63
2022/03/11 07:49:34;;;;;;;21.85;13.20;;;9.50;99.90;;;;;;4958779;28;20138;-62
2022/03/11 07:52:00;;;;;;;23.48;11.95;;;9.70;99.90;;;;;;4980959;28;20549;-62
2022/03/11 07:54:26;;;;;;;23.65;14.00;;;10.40;99.90;;;;;;4950022;28;20062;-62
2022/03/11 07:56:52;;;;;;;22.08;12.57;;;;;;;;;;4947431;28;20494;-64
2022/03/11 07:59:18;;;;;;;24.40;12.98;;;;;;;;;;4960596;28;20047;-63
2022/03/11 08:01:44;;;;;;;21.25;11.88;;;9.20;99.90;;;;;;4941113;29;20572;-64
2022/03/11 08:04:13;;;;;;;18.27;11.30;;;;;;;;;;4947940;29;20043;-63
2022/03/11 08:06:41;;;;;;;21.45;12.45;;;9.60;99.90;;;;;;4933664;28;20055;-63
2022/03/11 08:09:07;;;;;;;18.30;11.30;;;;;;;;;;4962386;28;20509;-63
2022/03/11 08:11:33;;;;;;;22.13;11.32;;;9.70;99.90;;;;;;4949743;28;20158;-62
2022/03/11 08:13:58;;;;;;;24.05;15.02;;;9.40;99.90;;;;;;4950004;28;20047;-62
2022/03/11 08:16:24;;;;;;;25.67;15.10;;;9.80;99.90;;;;;;4949588;28;20043;-62
2022/03/11 08:18:49;;;;;;;22.40;14.73;;;10.30;99.90;;;;;;4950216;29;20118;-62
2022/03/11 08:21:18;;;;;;;23.73;14.18;;;;;;;;;;4960442;28;20050;-62
2022/03/11 08:23:44;;;;;;;22.77;14.20;;;10.50;99.90;;;;;;4977604;28;20043;-64
2022/03/11 08:26:10;;;;;;;23.25;13.82;;;10.80;99.90;;;;;;4937365;28;20515;-64
2022/03/11 08:28:37;;;;;;;20.02;13.02;;;11.50;99.90;;;;;;4932840;28;20109;-64
2022/03/11 08:31:03;;;;;;;22.27;12.80;;;11.80;99.90;;;;;;4967880;28;20087;-62
2022/03/11 08:33:30;;;;;;;16.60;10.63;;;11.90;99.90;;;;;;4947476;29;20051;-62
2022/03/11 08:35:56;;;;;;;19.92;13.05;;;12.40;98.80;;;;;;4950129;29;20112;-62
2022/03/11 08:38:22;;;;;;;20.35;12.25;;;12.50;97.00;;;;;;4950504;28;20085;-61
2022/03/11 08:40:48;;;;;;;22.20;14.38;;;;;;;;;;4934689;28;20047;-63
2022/03/11 08:43:14;;;;;;;22.58;14.05;;;13.60;95.30;;;;;;4950420;28;20039;-63
2022/03/11 08:45:40;;;;;;;23.13;14.85;;;;;;;;;;4948652;28;20051;-63
2022/03/11 08:48:06;;;;;;;20.52;13.40;;;14.20;93.40;;;;;;4948226;29;20086;-60
2022/03/11 08:50:33;;;;;;;22.02;12.20;;;14.40;93.00;;;;;;4968303;28;20047;-62
2022/03/11 08:52:59;;;;;;;22.17;15.23;;;14.20;93.10;;;;;;4982235;28;20043;-63
2022/03/11 08:55:24;;;;;;;22.15;13.38;;;14.30;92.40;;;;;;4933063;29;20070;-66
2022/03/11 08:57:51;;;;;;;23.45;14.88;;;14.60;91.50;;;;;;4941143;29;20043;-62
2022/03/11 09:00:19;;;;;;;21.40;14.35;;;14.80;91.60;;;;;;4947644;28;20398;-64
2022/03/11 09:02:45;;;;;;;20.55;13.32;;;14.70;91.40;;;;;;4940968;28;20041;-64
2022/03/11 09:05:13;;;;;;;24.17;15.05;;;14.80;90.70;;;;;;4945519;28;20036;-62
2022/03/11 09:07:39;;;;;;;22.15;13.68;;;14.50;91.00;;;;;;4933505;28;20046;-63
2022/03/11 09:10:09;;;;;;;19.98;12.75;;;14.10;91.10;;;;;;4937945;28;20043;-62
2022/03/11 09:12:35;;;;;;;18.10;12.38;;;;;;;;;;4951328;28;20051;-63
2022/03/11 09:15:01;;;;;;;22.00;13.68;;;15.00;90.00;;;;;;4952412;28;20546;-62
2022/03/11 09:17:27;;;;;;;20.13;12.18;;;15.60;90.30;;;;;;4960830;28;20046;-61
2022/03/11 09:19:54;;;;;;;22.60;14.82;;;15.60;88.50;;;;;;4964394;28;20035;-65
2022/03/11 09:22:20;;;;;;;21.02;12.63;;;16.20;87.50;;;;;;4962078;28;20393;-66
2022/03/11 09:24:46;;;;;;;21.20;14.35;;;16.80;85.10;;;;;;4983119;28;20047;-67
2022/03/11 09:27:12;;;;;;;21.73;14.10;;;16.70;85.90;;;;;;4947509;28;20085;-65
2022/03/11 09:29:38;;;;;;;22.08;13.10;;;16.80;84.40;;;;;;4942646;28;20047;-64
2022/03/11 09:32:04;;;;;;;29.67;13.30;;;16.90;83.30;;;;;;4943193;28;20132;-64
2022/03/11 09:34:30;;;;;;;23.17;13.68;;;17.00;82.40;;;;;;4962759;28;20096;-63
2022/03/11 09:36:56;;;;;;;26.33;15.90;;;17.40;82.70;;;;;;4963592;28;20045;-63
2022/03/11 09:39:23;;;;;;;21.05;13.85;;;17.90;82.80;;;;;;4945103;28;20416;-64
2022/03/11 09:41:49;;;;;;;33.53;14.52;;;18.30;81.80;;;;;;4961220;28;20051;-65
2022/03/11 09:44:16;;;;;;;22.45;13.57;;;17.90;81.10;;;;;;4959473;28;20058;-65
2022/03/11 09:46:42;;;;;;;20.85;13.52;;;18.00;80.40;;;;;;4951533;28;20097;-66
2022/03/11 09:49:11;;;;;;;18.95;13.32;;;18.20;80.70;;;;;;4959880;28;20043;-66
2022/03/11 09:51:36;;;;;;;21.17;13.95;;;18.00;80.10;;;;;;4952327;28;20055;-65
2022/03/11 09:54:02;;;;;;;24.55;14.48;;;18.30;80.00;;;;;;4945113;28;20055;-65
2022/03/11 09:56:29;;;;;;;21.65;13.30;;;20.40;81.00;;;;;;4936865;28;20285;-65
2022/03/11 09:58:55;;;;;;;20.52;14.32;;;18.60;78.50;;;;;;4940134;28;20046;-65
2022/03/11 10:01:21;;;;;;;26.88;15.38;;;18.80;79.00;;;;;;4939109;28;20042;-63
2022/03/11 10:03:46;;;;;;;21.25;13.88;;;19.40;79.20;;;;;;4962501;28;20473;-63
2022/03/11 10:06:12;;;;;;;17.95;11.95;;;19.40;76.40;;;;;;4959405;28;20061;-63
2022/03/11 10:08:40;;;;;;;20.80;13.32;;;19.40;77.10;;;;;;4964160;28;20049;-62
2022/03/11 10:11:26;;;;;;;22.10;15.05;;;19.00;76.70;;;;;;4960605;28;20042;-63
2022/03/11 10:14:06;;;;;;;24.10;15.13;;;19.70;77.30;;;;;;4942336;28;20048;-63
2022/03/11 10:16:32;;;;;;;26.50;14.30;;;19.80;75.40;;;;;;4949276;28;20488;-64
2022/03/11 10:19:00;;;;;;;21.15;14.93;;;20.00;75.30;;;;;;4969242;28;20074;-62
2022/03/11 10:21:30;;;;;;;22.48;14.77;;;19.80;75.80;;;;;;4941570;28;20050;-64
2022/03/11 10:23:55;;;;;;;21.15;14.20;;;19.10;75.70;;;;;;4959322;28;20039;-63
2022/03/11 10:26:51;;;;;;;22.92;15.60;;;18.90;75.60;;;;;;4958656;28;20046;-64
2022/03/11 10:29:22;;;;;;;24.55;13.98;;;19.30;76.00;;;;;;4947892;28;20083;-64
2022/03/11 10:31:50;;;;;;;23.00;14.80;;;19.00;75.10;;;;;;4960252;28;20051;-63
2022/03/11 10:34:33;;;;;;;20.20;14.65;;;19.70;75.60;;;;;;4963456;28;20066;-63
2022/03/11 10:37:07;;;;;;;20.55;13.27;;;20.10;73.60;;;;;;4965902;28;20039;-63
2022/03/11 10:39:36;;;;;;;22.10;14.20;;;20.50;74.50;;;;;;4949199;28;20081;-63
2022/03/11 10:42:21;;;;;;;23.05;14.30;;;19.30;75.60;;;;;;4967148;28;20270;-64
2022/03/11 10:45:05;;;;;;;17.38;11.90;;;19.40;74.70;;;;;;4962231;28;20057;-64
2022/03/11 10:47:34;;;;;;;22.23;13.50;;;18.00;76.90;;;;;;4946528;28;20401;-62
2022/03/11 10:50:03;;;;;;;20.98;14.25;;;17.90;76.20;;;;;;4963536;28;20508;-63
2022/03/11 10:52:41;;;;;;;20.10;12.02;;;16.70;78.80;;;;;;4965911;28;20519;-63
2022/03/11 10:55:20;;;;;;;19.50;11.23;;;15.10;82.50;;;;;;4954681;28;20481;-62
2022/03/11 10:57:47;;;;;;;18.73;12.02;;;14.50;85.00;;;;;;4955377;28;20059;-64
2022/03/11 11:00:18;;;;;;;18.67;11.98;;;14.10;85.60;;;;;;4949183;28;20077;-64
2022/03/11 11:02:54;;;;;;;21.77;12.98;;;13.80;85.40;;;;;;4953528;28;20043;-66
2022/03/11 11:05:20;;;;;;;23.55;13.02;;;13.80;83.80;;;;;;4935787;28;20043;-64
2022/03/11 11:07:46;;;;;;;20.33;11.90;;;;;;;;;;4931717;28;20055;-61
2022/03/11 11:10:14;;;;;;;31.90;13.23;;;12.90;86.20;;;;;;4951866;28;20047;-64
2022/03/11 11:12:40;;;;;;;20.63;12.35;;;12.60;84.70;;;;;;4956839;28;20496;-63
2022/03/11 11:15:07;;;;;;;28.92;14.00;;;12.40;87.70;;;;;;4969106;28;20046;-58
2022/03/11 11:17:35;;;;;;;23.45;14.40;;;12.30;86.00;;;;;;4957514;28;20101;-63
2022/03/11 11:20:02;;;;;;;23.17;13.20;;;12.30;85.80;;;;;;4957762;28;20413;-65
2022/03/11 11:22:30;;;;;;;20.63;13.98;;;12.30;86.90;;;;;;4959359;28;20047;-62
2022/03/11 11:24:56;;;;;;;19.35;12.30;;;12.40;88.00;;;;;;4956809;28;20099;-65
2022/03/11 11:27:22;;;;;;;21.83;14.43;;;;;;;;;;4947582;28;20046;-64
2022/03/11 11:29:48;;;;;;;22.58;12.50;;;11.90;89.80;;;;;;4990464;28;20055;-62
2022/03/11 11:32:17;;;;;;;22.90;13.43;;;12.40;87.40;;;;;;4946185;28;20055;-65
2022/03/11 11:34:43;;;;;;;23.30;14.60;;;;;;;;;;4945366;28;20549;-64
2022/03/11 11:37:36;;;;;;;20.83;12.02;;;12.00;89.70;;;;;;4985311;28;20037;-62
2022/03/11 11:40:20;;;;;;;18.38;11.20;;;12.20;87.70;;;;;;4948130;28;20039;-63
2022/03/11 11:43:11;;;;;;;21.85;14.68;;;12.20;86.00;;;;;;4930949;29;20100;-64
2022/03/11 11:45:41;;;;;;;23.25;13.63;;;12.10;89.20;;;;;;4944150;28;20146;-58
2022/03/11 11:48:33;;;;;;;23.20;14.57;;;12.20;89.00;;;;;;4930243;29;20051;-62
2022/03/11 11:51:06;;;;;;;23.25;15.10;;;12.10;86.10;;;;;;4948244;28;20084;-65
2022/03/11 11:53:33;;;;;;;24.63;15.18;;;12.10;88.10;;;;;;4961569;28;20062;-62
2022/03/11 11:55:59;;;;;;;23.15;15.27;;;12.10;89.50;;;;;;4934389;28;20523;-63
2022/03/11 11:58:25;;;;;;;20.25;12.98;;;12.00;88.10;;;;;;4946113;28;20077;-63
2022/03/11 12:00:55;;;;;;;24.58;14.82;;;12.10;85.90;;;;;;4951908;28;20043;-63
2022/03/11 12:03:49;;;;;;;22.63;13.00;;;12.20;88.30;;;;;;4932154;29;20642;-62
2022/03/11 12:06:54;;;;;;;24.13;14.77;;;12.20;88.70;;;;;;4937082;29;20150;-66
2022/03/11 12:09:42;;;;;;;22.35;13.43;;;12.20;90.00;;;;;;4956555;28;20527;-62
2022/03/11 12:12:30;;;;;;;22.00;14.05;;;12.40;85.40;;;;;;4937658;28;20051;-61
2022/03/11 12:14:59;;;;;;;21.95;13.93;;;12.30;86.80;;;;;;4952214;28;20051;-63
2022/03/11 12:17:59;;;;;;;22.33;13.30;;;12.30;90.10;;;;;;4953575;28;20054;-65
2022/03/11 12:20:34;;;;;;;21.42;12.93;;;12.30;87.40;;;;;;4945075;28;20157;-65
2022/03/11 12:23:20;;;;;;;;;;;12.20;87.80;;;;;;4967988;28;20039;-65
2022/03/11 12:25:54;;;;;;;21.83;13.18;;;12.50;85.80;;;;;;4942978;28;20380;-65
2022/03/11 12:28:29;;;;;;;23.87;15.37;;;12.50;89.30;;;;;;4959165;28;20108;-62
2022/03/11 12:30:57;;;;;;;23.55;14.60;;;12.60;87.30;;;;;;4947034;28;20284;-65
2022/03/11 12:33:30;;;;;;;20.45;13.25;;;12.70;86.70;;;;;;4982713;28;20057;-64
2022/03/11 12:35:56;;;;;;;23.00;14.75;;;12.50;87.70;;;;;;5029887;28;20533;-64
2022/03/11 12:38:24;;;;;;;21.83;15.57;;;12.50;89.70;;;;;;4987301;28;20050;-64
2022/03/11 12:40:51;;;;;;;28.67;14.52;;;12.40;90.20;;;;;;5002970;28;20048;-63
2022/03/11 12:43:21;;;;;;;20.52;13.70;;;12.50;87.80;;;;;;4997183;28;20570;-62
2022/03/11 12:45:52;;;;;;;24.17;13.88;;;12.60;89.90;;;;;;4963417;28;21132;-61
2022/03/11 12:48:28;;;;;;;22.75;14.38;;;12.50;88.80;;;;;;4929073;29;20058;-61
2022/03/11 12:50:54;;;;;;;19.90;13.80;;;12.40;89.80;;;;;;4999586;28;20053;-64